Hlavní strana
METAR-TAF:

METAR-TAF

Letiště :

Kajaani, Finsko

zeměpisná šířka: 64-17N, zeměpisná délka: 027-41E, výška: 143 m

Aktuální stav počasí

Zpráva byla vytvořena před 23 minutami, v 04:50 UTC
Západní vítr 5 kt
Teplota 9°C
Vlhkost vzduchu 81%
Tlak 1012 hPa
Viditelnost 10 km a více
Žádná oblačnost pod 1500 m, nevyskytují se cumulonimby.

METAR: EFKI 220450Z 26005KT CAVOK 09/06 Q1012

Čas: 08:13 (05:13 UTC)

Předpověď počasí

Zpráva byla vytvořena před 2 hodinami a 42 minutami, v 02:31 UTC
Předpověď platná od 22 v 03 UTC do 22 v 12 UTC
Severozápadní vítr 8 kt
Viditelnost 10 km a více
Žádná oblačnost pod 1500 m, nevyskytují se cumulonimby.

TAF: EFKI 220231Z 2203/2212 32008KT CAVOK

Stav a předpovědi počasí z více než 4 000 letišť (zprávy METAR a TAF).

Červené a žluté tečky na mapě představují dostupné meteorologické stanice.

Když kurzor umístíte na tečku, zobrazí se název stanice.

Pak kliknutím zobrazíte stav a předpověď počasí.

Chcete-li změnit mapu, kliknutím na zelené tlačítko se znaménkem +mapu přiblížíte, kliknutím na zelené tlačítko se znaménkem – mapu oddálíte a kliknutím na zelené šipky přejdete na sousední mapy.


METAR-TAF: